createdAt,value
2022-07-29T00:01:04.360Z,20.71
2022-07-29T00:03:32.196Z,20.46
2022-07-29T00:05:59.808Z,20.80
2022-07-29T00:08:28.571Z,21.27
2022-07-29T00:10:57.447Z,21.25
2022-07-29T00:13:32.659Z,21.02
2022-07-29T00:16:04.601Z,20.72
2022-07-29T00:18:34.024Z,20.44
2022-07-29T00:21:01.312Z,20.19
2022-07-29T00:23:31.643Z,20.56
2022-07-29T00:26:03.032Z,21.05
2022-07-29T00:28:30.295Z,21.08
2022-07-29T00:30:58.062Z,20.90
2022-07-29T00:33:25.641Z,20.64
2022-07-29T00:35:54.004Z,20.38
2022-07-29T00:38:23.063Z,20.14
2022-07-29T00:40:50.877Z,20.50
2022-07-29T00:43:18.249Z,20.98
2022-07-29T00:45:47.339Z,21.01
2022-07-29T00:48:15.068Z,20.74
2022-07-29T00:50:44.275Z,20.43
2022-07-29T00:53:12.017Z,20.17
2022-07-29T00:55:39.285Z,19.90
2022-07-29T00:58:06.412Z,20.21
2022-07-29T01:00:33.736Z,20.71
2022-07-29T01:03:01.837Z,20.76
2022-07-29T01:05:48.099Z,20.56
2022-07-29T01:08:20.797Z,20.22
2022-07-29T01:10:48.543Z,19.95
2022-07-29T01:13:16.122Z,19.72
2022-07-29T01:16:42.395Z,20.11
2022-07-29T01:19:33.467Z,20.67
2022-07-29T01:22:01.194Z,20.55
2022-07-29T01:25:01.708Z,20.33
2022-07-29T01:27:47.893Z,20.02
2022-07-29T01:30:15.759Z,19.77
2022-07-29T01:32:44.189Z,20.21
2022-07-29T01:35:26.584Z,20.67
2022-07-29T01:37:57.830Z,20.70
2022-07-29T01:40:28.526Z,20.46
2022-07-29T01:42:59.672Z,20.17
2022-07-29T01:45:50.718Z,19.89
2022-07-29T01:48:21.189Z,19.65
2022-07-29T01:51:03.159Z,20.17
2022-07-29T01:53:37.817Z,20.65
2022-07-29T01:56:06.472Z,20.58
2022-07-29T01:58:33.917Z,20.35
2022-07-29T02:01:01.592Z,20.08
2022-07-29T02:03:29.396Z,19.83
2022-07-29T02:05:56.577Z,19.60
2022-07-29T02:08:24.442Z,19.99
2022-07-29T02:10:51.683Z,20.50
2022-07-29T02:13:19.284Z,20.55
2022-07-29T02:15:47.952Z,20.37
2022-07-29T02:18:19.153Z,20.12
2022-07-29T02:20:49.109Z,19.87
2022-07-29T02:23:20.927Z,19.67
2022-07-29T02:25:49.718Z,20.13
2022-07-29T02:28:18.626Z,20.65
2022-07-29T02:30:46.859Z,20.68
2022-07-29T02:33:15.835Z,20.48
2022-07-29T02:35:44.525Z,20.21
2022-07-29T02:38:35.095Z,19.93
2022-07-29T02:41:04.561Z,19.67
2022-07-29T02:43:32.875Z,20.15
2022-07-29T02:46:00.157Z,20.61
2022-07-29T02:48:42.623Z,20.59
2022-07-29T02:51:13.437Z,20.34
2022-07-29T02:54:00.891Z,20.01
2022-07-29T02:56:28.913Z,19.73
2022-07-29T02:58:58.395Z,19.46
2022-07-29T03:01:30.811Z,19.83
2022-07-29T03:03:58.404Z,20.32
2022-07-29T03:06:31.063Z,20.34
2022-07-29T03:09:13.274Z,20.10
2022-07-29T03:11:50.351Z,19.84
2022-07-29T03:14:20.784Z,19.59
2022-07-29T03:16:48.927Z,19.38
2022-07-29T03:19:16.321Z,19.79
2022-07-29T03:21:43.696Z,20.31
2022-07-29T03:24:12.008Z,20.36
2022-07-29T03:26:39.776Z,20.17
2022-07-29T03:29:08.680Z,19.91
2022-07-29T03:31:40.668Z,19.66
2022-07-29T03:34:12.104Z,19.46
2022-07-29T03:36:41.473Z,19.91
2022-07-29T03:39:12.849Z,20.45
2022-07-29T03:41:40.154Z,20.49
2022-07-29T03:44:07.516Z,20.32
2022-07-29T03:46:35.061Z,20.07
2022-07-29T03:49:04.216Z,19.84
2022-07-29T03:51:33.978Z,19.65
2022-07-29T03:54:09.682Z,20.10
2022-07-29T03:56:40.775Z,20.66
2022-07-29T03:59:08.204Z,20.73
2022-07-29T04:01:36.457Z,20.58
2022-07-29T04:04:09.266Z,20.38
2022-07-29T04:06:43.161Z,20.17
2022-07-29T04:09:10.759Z,19.98
2022-07-29T04:12:02.197Z,19.86
2022-07-29T04:14:28.764Z,20.50
2022-07-29T04:17:00.909Z,21.04
2022-07-29T04:19:28.844Z,21.10
2022-07-29T04:21:57.184Z,20.96
2022-07-29T04:24:24.661Z,20.78
2022-07-29T04:26:53.280Z,20.61
2022-07-29T04:29:21.122Z,20.46
2022-07-29T04:31:48.484Z,20.95
2022-07-29T04:34:16.184Z,21.56
2022-07-29T04:36:43.967Z,21.69
2022-07-29T04:39:12.951Z,21.59
2022-07-29T04:41:42.361Z,21.42
2022-07-29T04:44:11.413Z,21.28
2022-07-29T04:46:41.975Z,21.18
2022-07-29T04:49:10.226Z,21.72
2022-07-29T04:51:37.717Z,22.38
2022-07-29T04:54:06.080Z,22.58
2022-07-29T04:56:33.545Z,22.50
2022-07-29T04:59:00.993Z,22.38
2022-07-29T05:01:28.810Z,22.26
2022-07-29T05:04:00.648Z,22.17
2022-07-29T05:06:28.885Z,22.17
2022-07-29T05:08:59.641Z,22.85
2022-07-29T05:11:30.519Z,23.63
2022-07-29T05:14:01.789Z,23.82
2022-07-29T05:16:29.130Z,23.77
2022-07-29T05:18:59.465Z,23.64
2022-07-29T05:21:27.033Z,23.54
2022-07-29T05:23:54.277Z,23.47
2022-07-29T05:26:21.488Z,23.41
2022-07-29T05:28:48.950Z,23.35
2022-07-29T05:31:16.380Z,23.29
2022-07-29T05:33:44.144Z,23.28
2022-07-29T05:36:11.416Z,23.20
2022-07-29T05:38:39.077Z,23.69
2022-07-29T05:41:06.819Z,24.34
2022-07-29T05:43:34.212Z,24.50
2022-07-29T05:46:01.492Z,24.40
2022-07-29T05:48:29.047Z,24.34
2022-07-29T05:50:56.914Z,24.37
2022-07-29T05:53:24.141Z,24.41
2022-07-29T05:55:51.793Z,24.50
2022-07-29T05:58:19.379Z,24.58
2022-07-29T06:01:00.309Z,24.65
2022-07-29T06:03:27.801Z,24.71
2022-07-29T06:05:55.162Z,24.75
2022-07-29T06:08:27.688Z,24.86
2022-07-29T06:10:55.472Z,24.98
2022-07-29T06:13:22.947Z,25.03
2022-07-29T06:15:54.415Z,25.13
2022-07-29T06:18:24.797Z,25.22
2022-07-29T06:20:55.002Z,25.25
2022-07-29T06:23:23.596Z,25.27
2022-07-29T06:25:51.395Z,25.26
2022-07-29T06:28:20.242Z,25.30
2022-07-29T06:30:47.629Z,25.36
2022-07-29T06:33:19.790Z,25.43
2022-07-29T06:35:53.110Z,25.53
2022-07-29T06:38:31.593Z,25.61
2022-07-29T06:41:11.168Z,25.66
2022-07-29T06:43:51.943Z,25.69
2022-07-29T06:46:21.446Z,25.69
2022-07-29T06:48:49.130Z,25.67
2022-07-29T06:51:22.201Z,25.69
2022-07-29T06:53:58.353Z,25.73
2022-07-29T06:56:31.740Z,25.82
2022-07-29T06:58:59.148Z,25.98
2022-07-29T07:01:30.637Z,26.15
2022-07-29T07:03:58.006Z,26.31
2022-07-29T07:06:25.372Z,26.49
2022-07-29T07:08:53.614Z,26.71
2022-07-29T07:11:20.898Z,26.88
2022-07-29T07:13:49.009Z,27.04
2022-07-29T07:16:16.943Z,27.20
2022-07-29T07:18:48.045Z,27.42
2022-07-29T07:21:19.012Z,27.66
2022-07-29T07:23:47.490Z,27.87
2022-07-29T07:26:15.649Z,28.08
2022-07-29T07:28:43.072Z,28.30
2022-07-29T07:31:11.159Z,28.48
2022-07-29T07:33:39.772Z,28.60
2022-07-29T07:36:07.295Z,28.72
2022-07-29T07:38:37.662Z,28.88
2022-07-29T07:41:05.036Z,29.07
2022-07-29T07:43:33.188Z,29.25
2022-07-29T07:46:01.882Z,29.41
2022-07-29T07:48:29.606Z,29.50
2022-07-29T07:50:57.386Z,29.56
2022-07-29T07:53:25.162Z,29.55
2022-07-29T07:56:09.778Z,29.65
2022-07-29T07:58:38.144Z,29.77
2022-07-29T08:01:05.431Z,29.83
2022-07-29T08:03:35.246Z,29.90
2022-07-29T08:06:04.885Z,29.90
2022-07-29T08:08:32.306Z,30.07
2022-07-29T08:11:02.217Z,30.33
2022-07-29T08:13:33.084Z,30.51
2022-07-29T08:16:12.614Z,30.63
2022-07-29T08:18:40.751Z,30.76
2022-07-29T08:21:09.366Z,30.88
2022-07-29T08:23:50.515Z,31.03
2022-07-29T08:26:24.657Z,31.20
2022-07-29T08:28:51.965Z,31.33
2022-07-29T08:31:19.359Z,31.51
2022-07-29T08:33:47.450Z,31.75
2022-07-29T08:36:14.792Z,31.94
2022-07-29T08:38:42.031Z,32.19
2022-07-29T08:41:09.485Z,32.38
2022-07-29T08:43:38.607Z,32.52
2022-07-29T08:46:06.143Z,32.62
2022-07-29T08:48:33.590Z,32.64
2022-07-29T08:51:02.497Z,32.71
2022-07-29T08:53:31.707Z,32.83
2022-07-29T08:56:00.576Z,32.99
2022-07-29T08:58:28.146Z,33.11
2022-07-29T09:00:56.374Z,33.25
2022-07-29T09:03:33.486Z,33.38
2022-07-29T09:06:00.765Z,33.47
2022-07-29T09:08:28.584Z,33.58
2022-07-29T09:10:59.513Z,33.74
2022-07-29T09:13:28.275Z,33.87
2022-07-29T09:15:57.277Z,33.73
2022-07-29T09:18:40.453Z,33.70
2022-07-29T09:21:28.977Z,33.70
2022-07-29T09:24:12.992Z,33.76
2022-07-29T09:26:50.064Z,33.97
2022-07-29T09:29:18.842Z,33.98
2022-07-29T09:31:53.844Z,34.01
2022-07-29T09:34:24.732Z,34.06
2022-07-29T09:36:53.281Z,34.22
2022-07-29T09:39:38.565Z,34.37
2022-07-29T09:42:07.272Z,34.54
2022-07-29T09:44:44.550Z,34.79
2022-07-29T09:47:12.764Z,34.94
2022-07-29T09:49:54.870Z,35.07
2022-07-29T09:52:22.955Z,35.13
2022-07-29T09:54:55.333Z,35.24
2022-07-29T09:57:28.650Z,35.48
2022-07-29T10:00:00.955Z,35.68
2022-07-29T10:02:34.484Z,35.83
2022-07-29T10:05:03.104Z,35.86
2022-07-29T10:07:50.578Z,35.71
2022-07-29T10:10:38.081Z,35.65
2022-07-29T10:13:16.634Z,35.74
2022-07-29T10:16:36.947Z,35.81
2022-07-29T10:19:34.183Z,35.96
2022-07-29T10:22:05.032Z,36.11
2022-07-29T10:24:32.348Z,36.23
2022-07-29T10:27:00.903Z,36.34
2022-07-29T10:29:29.931Z,36.44
2022-07-29T10:32:11.151Z,36.53
2022-07-29T10:34:57.826Z,36.45
2022-07-29T10:38:02.807Z,36.57
2022-07-29T10:41:19.657Z,36.70
2022-07-29T10:43:51.252Z,36.80
2022-07-29T10:46:19.917Z,36.88
2022-07-29T10:49:25.204Z,36.96
2022-07-29T10:51:57.650Z,37.01
2022-07-29T10:54:42.483Z,37.00
2022-07-29T10:57:13.880Z,36.95
2022-07-29T10:59:42.957Z,36.90
2022-07-29T11:02:43.983Z,36.89
2022-07-29T11:05:18.086Z,36.87
2022-07-29T11:08:19.907Z,36.76
2022-07-29T11:10:50.014Z,36.54
2022-07-29T11:13:47.337Z,36.47
2022-07-29T11:16:17.190Z,36.48
2022-07-29T11:19:24.740Z,36.45
2022-07-29T11:21:55.465Z,36.14
2022-07-29T11:24:30.247Z,35.69
2022-07-29T11:27:21.189Z,35.30
2022-07-29T11:29:56.386Z,35.20
2022-07-29T11:32:36.886Z,35.20
2022-07-29T11:35:17.713Z,35.25
2022-07-29T11:40:35.200Z,35.29
2022-07-29T11:43:07.355Z,35.27
2022-07-29T11:45:50.857Z,35.36
2022-07-29T11:48:31.683Z,35.49
2022-07-29T11:51:00.280Z,35.39
2022-07-29T11:53:29.131Z,34.96
2022-07-29T11:56:05.848Z,34.43
2022-07-29T11:58:34.458Z,34.20
2022-07-29T12:01:04.531Z,34.21
2022-07-29T12:03:36.906Z,34.25
2022-07-29T12:06:13.374Z,34.13
2022-07-29T12:08:43.807Z,33.97
2022-07-29T12:11:21.263Z,33.90
2022-07-29T12:13:54.408Z,33.73
2022-07-29T12:16:40.960Z,33.65
2022-07-29T12:19:08.967Z,33.59
2022-07-29T12:21:56.990Z,33.59
2022-07-29T12:24:27.381Z,33.40
2022-07-29T12:26:57.280Z,33.42
2022-07-29T12:29:35.075Z,33.39
2022-07-29T12:32:05.772Z,33.16
2022-07-29T12:34:33.362Z,32.86
2022-07-29T12:37:04.413Z,32.54
2022-07-29T12:39:33.526Z,32.27
2022-07-29T12:42:04.861Z,32.14
2022-07-29T12:44:48.717Z,32.05
2022-07-29T12:47:21.881Z,31.94
2022-07-29T12:50:22.129Z,31.82
2022-07-29T12:52:53.092Z,31.79
2022-07-29T12:55:42.853Z,31.79
2022-07-29T12:58:10.402Z,31.71
2022-07-29T13:00:38.826Z,31.54
2022-07-29T13:03:07.290Z,31.39
2022-07-29T13:05:48.543Z,31.25
2022-07-29T13:08:20.441Z,31.14
2022-07-29T13:10:51.270Z,31.01
2022-07-29T13:13:18.983Z,30.87
2022-07-29T13:15:50.044Z,30.72
2022-07-29T13:18:28.851Z,30.65
2022-07-29T13:20:57.144Z,30.60
2022-07-29T13:23:24.793Z,30.66
2022-07-29T13:25:53.489Z,30.67
2022-07-29T13:28:22.815Z,30.61
2022-07-29T13:30:53.721Z,30.62
2022-07-29T13:33:21.476Z,30.66
2022-07-29T13:35:48.894Z,30.81
2022-07-29T13:38:16.771Z,31.06
2022-07-29T13:40:44.811Z,31.29
2022-07-29T13:43:16.501Z,31.39
2022-07-29T13:45:43.927Z,31.50
2022-07-29T13:48:12.489Z,31.63
2022-07-29T13:50:39.865Z,31.72
2022-07-29T13:53:07.125Z,31.61
2022-07-29T13:55:34.411Z,31.60
2022-07-29T13:58:01.904Z,31.67
2022-07-29T14:00:32.496Z,31.71
2022-07-29T14:02:59.883Z,31.75
2022-07-29T14:05:27.399Z,31.76
2022-07-29T14:07:55.401Z,31.74
2022-07-29T14:10:22.875Z,31.73
2022-07-29T14:12:53.541Z,31.69
2022-07-29T14:15:21.440Z,31.67
2022-07-29T14:17:50.802Z,31.68
2022-07-29T14:20:18.972Z,31.65
2022-07-29T14:22:57.442Z,31.59
2022-07-29T14:25:25.523Z,31.57
2022-07-29T14:27:54.300Z,31.59
2022-07-29T14:30:26.717Z,31.62
2022-07-29T14:32:54.080Z,31.59
2022-07-29T14:35:26.769Z,31.51
2022-07-29T14:37:54.160Z,31.47
2022-07-29T14:40:22.578Z,31.38
2022-07-29T14:42:50.300Z,31.32
2022-07-29T14:45:25.852Z,31.35
2022-07-29T14:47:53.414Z,31.47
2022-07-29T14:50:31.282Z,31.52
2022-07-29T14:53:01.477Z,31.60
2022-07-29T14:55:28.803Z,31.67
2022-07-29T14:58:05.810Z,31.70
2022-07-29T15:00:37.887Z,31.64
2022-07-29T15:03:11.699Z,31.55
2022-07-29T15:05:39.780Z,31.53
2022-07-29T15:08:10.822Z,31.51
2022-07-29T15:10:40.259Z,31.48
2022-07-29T15:13:08.608Z,31.45
2022-07-29T15:15:38.005Z,31.44
2022-07-29T15:18:05.916Z,31.50
2022-07-29T15:20:34.045Z,31.55
2022-07-29T15:23:02.757Z,31.59
2022-07-29T15:25:37.266Z,31.60
2022-07-29T15:28:10.119Z,31.60
2022-07-29T15:30:41.925Z,31.60
2022-07-29T15:33:12.938Z,31.62
2022-07-29T15:35:40.974Z,31.63
2022-07-29T15:38:09.016Z,31.55
2022-07-29T15:40:38.994Z,31.40
2022-07-29T15:43:09.355Z,31.21
2022-07-29T15:45:41.070Z,30.90
2022-07-29T15:48:09.427Z,30.57
2022-07-29T15:50:37.443Z,30.29
2022-07-29T15:53:07.260Z,29.90
2022-07-29T15:55:34.587Z,29.60
2022-07-29T15:58:05.140Z,29.46
2022-07-29T16:00:32.557Z,29.25
2022-07-29T16:03:03.532Z,28.97
2022-07-29T16:05:36.216Z,28.71
2022-07-29T16:08:05.178Z,28.35
2022-07-29T16:10:32.407Z,28.18
2022-07-29T16:13:04.541Z,28.04
2022-07-29T16:15:31.986Z,27.91
2022-07-29T16:18:14.081Z,27.73
2022-07-29T16:20:42.140Z,27.53
2022-07-29T16:23:12.248Z,27.35
2022-07-29T16:25:59.069Z,27.25
2022-07-29T16:28:28.344Z,27.05
2022-07-29T16:30:58.677Z,26.94
2022-07-29T16:33:27.213Z,26.92
2022-07-29T16:36:03.666Z,26.86
2022-07-29T16:38:32.532Z,26.72
2022-07-29T16:41:06.338Z,26.54
2022-07-29T16:43:37.127Z,26.40
2022-07-29T16:46:39.016Z,26.26
2022-07-29T16:49:32.065Z,26.11
2022-07-29T16:52:08.353Z,26.01
2022-07-29T16:54:52.722Z,25.95
2022-07-29T16:57:19.937Z,25.89
2022-07-29T16:59:47.496Z,25.85
2022-07-29T17:02:20.200Z,25.78
2022-07-29T17:04:47.822Z,25.70
2022-07-29T17:07:16.261Z,25.62
2022-07-29T17:09:44.420Z,25.49
2022-07-29T17:12:11.957Z,25.49
2022-07-29T17:14:40.268Z,25.49
2022-07-29T17:17:13.797Z,25.46
2022-07-29T17:19:44.794Z,25.38
2022-07-29T17:22:18.703Z,25.33
2022-07-29T17:24:48.057Z,25.29
2022-07-29T17:27:16.735Z,25.27
2022-07-29T17:29:44.080Z,25.25
2022-07-29T17:32:11.552Z,25.22
2022-07-29T17:34:39.508Z,25.17
2022-07-29T17:37:08.155Z,25.13
2022-07-29T17:39:36.282Z,25.14
2022-07-29T17:42:04.229Z,25.10
2022-07-29T17:44:31.534Z,25.03
2022-07-29T17:47:00.984Z,24.94
2022-07-29T17:49:32.208Z,24.92
2022-07-29T17:52:01.160Z,24.86
2022-07-29T17:54:28.980Z,24.80
2022-07-29T17:56:57.230Z,24.74
2022-07-29T17:59:24.699Z,24.70
2022-07-29T18:01:53.301Z,24.67
2022-07-29T18:04:23.562Z,24.61
2022-07-29T18:07:01.699Z,24.53
2022-07-29T18:09:35.192Z,24.47
2022-07-29T18:12:23.564Z,24.42
2022-07-29T18:14:52.198Z,24.36
2022-07-29T18:17:19.648Z,24.29
2022-07-29T18:19:48.300Z,24.23
2022-07-29T18:22:17.678Z,24.14
2022-07-29T18:24:45.793Z,24.05
2022-07-29T18:27:14.164Z,23.99
2022-07-29T18:29:41.687Z,23.92
2022-07-29T18:32:09.764Z,23.86
2022-07-29T18:34:38.743Z,23.85
2022-07-29T18:37:07.995Z,23.80
2022-07-29T18:39:36.522Z,23.76
2022-07-29T18:42:06.461Z,24.26
2022-07-29T18:44:34.122Z,24.92
2022-07-29T18:47:11.362Z,25.08
2022-07-29T18:49:39.555Z,24.98
2022-07-29T18:52:13.064Z,24.84
2022-07-29T18:54:40.594Z,24.65
2022-07-29T18:57:54.863Z,24.47
2022-07-29T18:59:58.253Z,24.24
2022-07-29T19:02:25.541Z,24.08
2022-07-29T19:04:52.867Z,23.96
2022-07-29T19:07:39.931Z,23.82
2022-07-29T19:10:08.595Z,23.68
2022-07-29T19:12:39.263Z,23.57
2022-07-29T19:15:08.146Z,23.47
2022-07-29T19:17:39.361Z,24.03
2022-07-29T19:20:07.737Z,24.62
2022-07-29T19:22:37.308Z,24.69
2022-07-29T19:25:05.517Z,24.50
2022-07-29T19:27:33.254Z,24.21
2022-07-29T19:30:03.389Z,23.91
2022-07-29T19:32:32.980Z,23.64
2022-07-29T19:35:19.680Z,23.39
2022-07-29T19:37:46.969Z,23.16
2022-07-29T19:40:16.231Z,23.00
2022-07-29T19:42:44.124Z,22.86
2022-07-29T19:45:11.888Z,23.35
2022-07-29T19:47:40.559Z,23.94
2022-07-29T19:50:09.179Z,24.00
2022-07-29T19:52:36.590Z,23.81
2022-07-29T19:55:07.538Z,23.56
2022-07-29T19:57:41.013Z,23.29
2022-07-29T20:00:11.435Z,23.05
2022-07-29T20:02:41.666Z,22.83
2022-07-29T20:05:09.679Z,22.62
2022-07-29T20:07:41.978Z,22.45
2022-07-29T20:10:10.104Z,22.95
2022-07-29T20:12:42.702Z,23.50
2022-07-29T20:15:16.391Z,23.51
2022-07-29T20:17:45.695Z,23.30
2022-07-29T20:20:13.871Z,23.04
2022-07-29T20:22:41.046Z,22.77
2022-07-29T20:25:10.021Z,22.52
2022-07-29T20:27:39.478Z,22.30
2022-07-29T20:30:08.330Z,22.12
2022-07-29T20:32:35.938Z,22.56
2022-07-29T20:35:07.104Z,23.10
2022-07-29T20:37:52.118Z,23.11
2022-07-29T20:40:25.558Z,22.85
2022-07-29T20:42:53.932Z,22.56
2022-07-29T20:45:22.847Z,22.27
2022-07-29T20:47:51.859Z,22.01
2022-07-29T20:50:23.842Z,21.77
2022-07-29T20:52:53.135Z,21.55
2022-07-29T20:55:21.064Z,21.39
2022-07-29T20:57:48.738Z,21.87
2022-07-29T21:00:16.257Z,22.44
2022-07-29T21:02:44.262Z,22.52
2022-07-29T21:05:11.784Z,22.35
2022-07-29T21:07:39.046Z,22.11
2022-07-29T21:10:06.831Z,21.87
2022-07-29T21:12:42.359Z,21.64
2022-07-29T21:15:16.405Z,21.43
2022-07-29T21:17:47.341Z,21.89
2022-07-29T21:20:15.751Z,22.40
2022-07-29T21:22:43.117Z,22.43
2022-07-29T21:25:11.080Z,22.23
2022-07-29T21:28:02.093Z,21.93
2022-07-29T21:30:31.335Z,21.61
2022-07-29T21:32:59.703Z,21.36
2022-07-29T21:35:35.590Z,21.15
2022-07-29T21:38:17.128Z,20.97
2022-07-29T21:40:47.863Z,21.54
2022-07-29T21:43:15.428Z,22.10
2022-07-29T21:45:43.850Z,22.13
2022-07-29T21:48:11.921Z,21.91
2022-07-29T21:50:39.215Z,21.63
2022-07-29T21:53:15.851Z,21.31
2022-07-29T21:55:43.757Z,21.03
2022-07-29T21:58:15.599Z,20.80
2022-07-29T22:00:43.114Z,21.18
2022-07-29T22:03:10.619Z,21.68
2022-07-29T22:05:38.026Z,21.71
2022-07-29T22:08:05.630Z,21.50
2022-07-29T22:10:36.783Z,21.23
2022-07-29T22:13:04.073Z,20.97
2022-07-29T22:15:36.388Z,20.74
2022-07-29T22:18:10.538Z,20.53
2022-07-29T22:20:38.897Z,20.99
2022-07-29T22:23:10.102Z,21.51
2022-07-29T22:25:40.685Z,21.52
2022-07-29T22:28:08.668Z,21.26
2022-07-29T22:30:36.035Z,20.96
2022-07-29T22:33:04.259Z,20.68
2022-07-29T22:35:32.963Z,20.44
2022-07-29T22:38:00.441Z,20.21
2022-07-29T22:40:30.591Z,20.57
2022-07-29T22:42:58.188Z,21.08
2022-07-29T22:45:28.763Z,21.13
2022-07-29T22:47:58.965Z,20.95
2022-07-29T22:50:26.769Z,20.71
2022-07-29T22:52:53.843Z,20.47
2022-07-29T22:55:21.343Z,20.23
2022-07-29T22:57:48.844Z,20.02
2022-07-29T23:00:16.353Z,20.43
2022-07-29T23:02:43.568Z,20.96
2022-07-29T23:05:18.504Z,21.01
2022-07-29T23:07:48.984Z,20.83
2022-07-29T23:10:20.784Z,20.57
2022-07-29T23:12:50.464Z,20.33
2022-07-29T23:15:20.330Z,20.10
2022-07-29T23:17:48.481Z,19.89
2022-07-29T23:20:15.817Z,20.33
2022-07-29T23:22:44.320Z,20.86
2022-07-29T23:25:11.607Z,20.90
2022-07-29T23:27:39.078Z,20.70
2022-07-29T23:30:07.164Z,20.43
2022-07-29T23:32:35.316Z,20.14
2022-07-29T23:35:07.032Z,19.89
2022-07-29T23:37:35.702Z,19.67
2022-07-29T23:40:03.630Z,20.10
2022-07-29T23:42:31.065Z,20.65
2022-07-29T23:44:58.915Z,20.70
2022-07-29T23:47:30.192Z,20.52
2022-07-29T23:49:57.669Z,20.27
2022-07-29T23:52:27.730Z,20.00
2022-07-29T23:55:36.407Z,19.76
2022-07-29T23:57:46.095Z,19.56
